North Greece, New York
Current Conditions -  °F | °C
As of 7:54 AM on Saturday 20 Dec 2014 (Local Time) from KROC Reporting Station
Overcast Overcast  
Wind Chill: 23°   Ceiling: 2200
Heat Index: 28°   Visibility: 10mi
Dew Point: 21°   Wind: 5mph
Humidity: 75%   Direction: 290°WNW
Pressure: 30.29"   Gusts: NA
Location:  43.25°N, 77.73°W
Report Text: KROC 201254Z 29004KT 10SM OVC022 M02/M06 A3029 RMK AO2 SLP269 T10221061
Loading
Personal Weather Stations






























Interactive Weather Map New forecast layout! Learn more

10-Day Weather Forecast

Advertisements
Track Severe Weather on mobile